createdAt,value
2022-12-11T00:00:23.075Z,98.22
2022-12-11T00:01:23.048Z,97.90
2022-12-11T00:02:23.060Z,97.80
2022-12-11T00:03:23.121Z,97.90
2022-12-11T00:04:23.019Z,98.00
2022-12-11T00:05:23.000Z,98.11
2022-12-11T00:06:22.989Z,97.58
2022-12-11T00:07:22.975Z,97.38
2022-12-11T00:08:23.009Z,97.27
2022-12-11T00:09:22.984Z,97.27
2022-12-11T00:10:22.940Z,97.48
2022-12-11T00:11:22.927Z,97.27
2022-12-11T00:12:22.914Z,97.27
2022-12-11T00:13:22.916Z,97.17
2022-12-11T00:14:22.890Z,97.17
2022-12-11T00:15:22.869Z,97.48
2022-12-11T00:16:26.940Z,96.95
2022-12-11T00:17:22.841Z,96.95
2022-12-11T00:18:22.830Z,97.00
2022-12-11T00:19:22.816Z,97.11
2022-12-11T00:20:22.805Z,97.11
2022-12-11T00:21:22.789Z,97.31
2022-12-11T00:22:22.774Z,97.21
2022-12-11T00:23:22.763Z,97.15
2022-12-11T00:24:22.755Z,96.79
2022-12-11T00:25:22.773Z,96.79
2022-12-11T00:26:22.730Z,96.58
2022-12-11T00:27:22.715Z,96.26
2022-12-11T00:28:22.701Z,96.26
2022-12-11T00:29:22.692Z,96.31
2022-12-11T00:30:22.697Z,96.41
2022-12-11T00:31:22.758Z,96.10
2022-12-11T00:32:22.649Z,95.64
2022-12-11T00:33:22.636Z,96.05
2022-12-11T00:34:22.621Z,96.20
2022-12-11T00:35:22.608Z,95.99
2022-12-11T00:36:22.594Z,95.95
2022-12-11T00:37:22.634Z,96.05
2022-12-11T00:38:22.565Z,95.95
2022-12-11T00:39:22.557Z,96.05
2022-12-11T00:40:22.538Z,95.99
2022-12-11T00:41:22.551Z,95.78
2022-12-11T00:42:22.518Z,95.78
2022-12-11T00:43:22.511Z,95.95
2022-12-11T00:44:22.496Z,95.95
2022-12-11T00:45:22.476Z,95.84
2022-12-11T00:46:22.507Z,95.89
2022-12-11T00:47:22.452Z,95.89
2022-12-11T00:48:22.433Z,96.10
2022-12-11T00:49:22.426Z,96.05
2022-12-11T00:50:22.611Z,96.26
2022-12-11T00:51:22.394Z,96.25
2022-12-11T00:52:22.382Z,96.31
2022-12-11T00:53:22.371Z,96.62
2022-12-11T00:54:22.375Z,96.51
2022-12-11T00:55:22.345Z,96.56
2022-12-11T00:56:22.331Z,96.45
2022-12-11T00:57:22.351Z,95.99
2022-12-11T00:58:22.304Z,95.78
2022-12-11T00:59:22.292Z,96.03
2022-12-11T01:00:22.288Z,96.20
2022-12-11T01:01:22.393Z,96.31
2022-12-11T01:02:22.324Z,96.10
2022-12-11T01:03:22.242Z,95.99
2022-12-11T01:04:22.229Z,96.10
2022-12-11T01:05:22.210Z,96.10
2022-12-11T01:06:22.199Z,96.20
2022-12-11T01:07:22.189Z,96.41
2022-12-11T01:08:22.195Z,96.56
2022-12-11T01:09:22.164Z,96.62
2022-12-11T01:10:22.206Z,96.62
2022-12-11T01:11:22.134Z,96.77
2022-12-11T01:12:22.125Z,96.88
2022-12-11T01:13:22.135Z,97.19
2022-12-11T01:14:22.089Z,96.98
2022-12-11T01:15:22.074Z,96.71
2022-12-11T01:16:22.123Z,96.61
2022-12-11T01:17:22.056Z,96.45
2022-12-11T01:18:22.037Z,96.39
2022-12-11T01:19:22.025Z,96.50
2022-12-11T01:20:22.016Z,96.61
2022-12-11T01:21:22.001Z,96.77
2022-12-11T01:22:21.988Z,96.61
2022-12-11T01:23:21.975Z,96.71
2022-12-11T01:24:21.957Z,96.71
2022-12-11T01:25:21.944Z,96.81
2022-12-11T01:26:21.938Z,96.61
2022-12-11T01:27:21.932Z,96.19
2022-12-11T01:28:21.902Z,95.97
2022-12-11T01:29:21.909Z,96.08
2022-12-11T01:30:21.880Z,95.83
2022-12-11T01:31:21.862Z,95.76
2022-12-11T01:32:21.860Z,95.72
2022-12-11T01:33:21.855Z,95.62
2022-12-11T01:34:21.850Z,95.51
2022-12-11T01:35:21.820Z,95.40
2022-12-11T01:36:21.793Z,95.30
2022-12-11T01:37:21.790Z,95.40
2022-12-11T01:38:21.774Z,95.47
2022-12-11T01:39:21.759Z,95.57
2022-12-11T01:40:21.744Z,95.68
2022-12-11T01:41:21.737Z,95.78
2022-12-11T01:42:21.724Z,96.10
2022-12-11T01:43:21.706Z,95.99
2022-12-11T01:44:21.694Z,95.99
2022-12-11T01:45:23.084Z,95.95
2022-12-11T01:46:21.697Z,95.95
2022-12-11T01:47:21.646Z,95.95
2022-12-11T01:48:21.635Z,96.05
2022-12-11T01:49:21.620Z,95.95
2022-12-11T01:50:21.601Z,95.95
2022-12-11T01:51:21.596Z,95.95
2022-12-11T01:52:21.585Z,95.95
2022-12-11T01:53:21.574Z,96.16
2022-12-11T01:54:21.560Z,95.95
2022-12-11T01:55:21.548Z,96.05
2022-12-11T01:56:21.534Z,96.16
2022-12-11T01:57:21.523Z,96.26
2022-12-11T01:58:21.505Z,96.43
2022-12-11T01:59:21.526Z,96.53
2022-12-11T02:00:21.487Z,96.69
2022-12-11T02:01:21.561Z,96.53
2022-12-11T02:02:21.525Z,96.53
2022-12-11T02:03:21.446Z,96.79
2022-12-11T02:04:21.426Z,96.79
2022-12-11T02:05:21.413Z,96.79
2022-12-11T02:06:21.399Z,96.89
2022-12-11T02:07:21.393Z,96.95
2022-12-11T02:08:21.445Z,96.85
2022-12-11T02:09:21.362Z,96.95
2022-12-11T02:10:21.347Z,96.75
2022-12-11T02:11:21.331Z,96.85
2022-12-11T02:12:21.316Z,96.85
2022-12-11T02:13:21.312Z,96.95
2022-12-11T02:14:21.292Z,97.06
2022-12-11T02:15:21.283Z,97.06
2022-12-11T02:16:21.369Z,97.17
2022-12-11T02:17:21.279Z,97.06
2022-12-11T02:18:21.246Z,97.06
2022-12-11T02:19:21.231Z,97.17
2022-12-11T02:20:21.227Z,97.17
2022-12-11T02:21:21.211Z,97.38
2022-12-11T02:22:21.195Z,97.48
2022-12-11T02:23:21.182Z,97.58
2022-12-11T02:24:21.169Z,97.23
2022-12-11T02:25:21.158Z,97.58
2022-12-11T02:26:21.144Z,97.80
2022-12-11T02:27:21.129Z,97.69
2022-12-11T02:28:21.116Z,97.54
2022-12-11T02:29:21.103Z,97.58
2022-12-11T02:30:21.091Z,97.86
2022-12-11T02:31:21.128Z,98.32
2022-12-11T02:32:21.059Z,98.59
2022-12-11T02:33:21.069Z,98.28
2022-12-11T02:34:21.032Z,98.49
2022-12-11T02:35:21.023Z,98.43
2022-12-11T02:36:21.002Z,99.01
2022-12-11T02:37:20.998Z,99.11
2022-12-11T02:38:20.984Z,99.33
2022-12-11T02:39:20.968Z,99.01
2022-12-11T02:40:20.953Z,99.05
2022-12-11T02:41:20.944Z,98.80
2022-12-11T02:42:20.931Z,99.01
2022-12-11T02:43:20.920Z,99.01
2022-12-11T02:44:20.904Z,99.54
2022-12-11T02:45:20.894Z,99.33
2022-12-11T02:46:20.880Z,99.43
2022-12-11T02:47:20.869Z,99.64
2022-12-11T02:48:20.850Z,99.64
2022-12-11T02:49:20.860Z,99.96
2022-12-11T02:50:20.822Z,99.74
2022-12-11T02:51:20.810Z,99.74
2022-12-11T02:52:20.797Z,99.85
2022-12-11T02:53:20.817Z,99.64
2022-12-11T02:54:20.773Z,99.22
2022-12-11T02:55:20.756Z,99.18
2022-12-11T02:56:20.743Z,98.91
2022-12-11T02:57:20.741Z,98.91
2022-12-11T02:58:20.718Z,99.11
2022-12-11T02:59:20.710Z,98.86
2022-12-11T03:00:20.694Z,98.86
2022-12-11T03:01:20.722Z,99.01
2022-12-11T03:02:20.702Z,98.91
2022-12-11T03:03:20.653Z,99.01
2022-12-11T03:04:20.636Z,98.91
2022-12-11T03:05:20.653Z,98.91
2022-12-11T03:06:20.617Z,99.33
2022-12-11T03:07:20.608Z,99.28
2022-12-11T03:08:20.631Z,99.33
2022-12-11T03:09:20.579Z,99.64
2022-12-11T03:10:20.568Z,99.49
2022-12-11T03:11:20.554Z,99.96
2022-12-11T03:12:20.543Z,99.70
2022-12-11T03:13:20.525Z,99.74
2022-12-11T03:14:20.504Z,99.64
2022-12-11T03:15:20.494Z,99.43
2022-12-11T03:16:20.531Z,99.54
2022-12-11T03:17:20.472Z,99.49
2022-12-11T03:18:20.465Z,99.43
2022-12-11T03:19:20.651Z,99.18
2022-12-11T03:20:20.432Z,99.28
2022-12-11T03:21:20.445Z,99.18
2022-12-11T03:22:20.500Z,99.28
2022-12-11T03:23:20.398Z,99.43
2022-12-11T03:24:20.378Z,99.64
2022-12-11T03:25:20.371Z,99.74
2022-12-11T03:26:20.355Z,99.70
2022-12-11T03:27:20.345Z,99.96
2022-12-11T03:28:20.336Z,99.74
2022-12-11T03:29:20.315Z,99.99
2022-12-11T03:30:20.303Z,99.99
2022-12-11T03:31:20.282Z,99.69
2022-12-11T03:32:20.271Z,99.90
2022-12-11T03:33:20.268Z,99.99
2022-12-11T03:34:20.250Z,99.99
2022-12-11T03:35:20.241Z,99.99
2022-12-11T03:36:20.227Z,99.90
2022-12-11T03:37:20.230Z,99.84
2022-12-11T03:38:20.197Z,99.73
2022-12-11T03:39:20.184Z,99.63
2022-12-11T03:40:20.170Z,99.84
2022-12-11T03:41:20.154Z,99.99
2022-12-11T03:42:20.142Z,99.84
2022-12-11T03:43:20.134Z,99.88
2022-12-11T03:44:20.115Z,99.36
2022-12-11T03:45:20.112Z,99.25
2022-12-11T03:46:20.132Z,98.94
2022-12-11T03:47:20.082Z,99.04
2022-12-11T03:48:20.068Z,98.83
2022-12-11T03:49:20.059Z,98.83
2022-12-11T03:50:20.056Z,98.94
2022-12-11T03:51:20.037Z,98.56
2022-12-11T03:52:20.013Z,98.62
2022-12-11T03:53:20.028Z,98.83
2022-12-11T03:54:19.987Z,98.72
2022-12-11T03:55:19.977Z,98.66
2022-12-11T03:56:19.966Z,98.66
2022-12-11T03:57:19.952Z,98.35
2022-12-11T03:58:19.933Z,97.93
2022-12-11T03:59:19.922Z,98.03
2022-12-11T04:00:19.910Z,98.24
2022-12-11T04:01:19.994Z,98.35
2022-12-11T04:02:19.886Z,97.57
2022-12-11T04:03:19.870Z,97.72
2022-12-11T04:04:19.892Z,97.61
2022-12-11T04:05:19.845Z,97.93
2022-12-11T04:06:19.833Z,97.82
2022-12-11T04:07:19.814Z,97.93
2022-12-11T04:08:19.908Z,97.82
2022-12-11T04:09:19.815Z,98.03
2022-12-11T04:10:19.778Z,98.03
2022-12-11T04:11:19.763Z,98.24
2022-12-11T04:12:19.755Z,98.50
2022-12-11T04:13:19.740Z,98.08
2022-12-11T04:14:19.723Z,98.24
2022-12-11T04:15:19.712Z,97.97
2022-12-11T04:16:19.717Z,97.55
2022-12-11T04:17:19.684Z,97.45
2022-12-11T04:18:19.666Z,97.66
2022-12-11T04:19:19.657Z,97.45
2022-12-11T04:20:19.641Z,97.45
2022-12-11T04:21:19.627Z,97.55
2022-12-11T04:22:19.611Z,97.55
2022-12-11T04:23:19.599Z,97.55
2022-12-11T04:24:19.590Z,97.34
2022-12-11T04:25:19.608Z,97.45
2022-12-11T04:26:19.569Z,97.34
2022-12-11T04:27:19.555Z,97.34
2022-12-11T04:28:19.537Z,97.45
2022-12-11T04:29:19.525Z,97.66
2022-12-11T04:30:19.511Z,97.34
2022-12-11T04:31:19.570Z,97.34
2022-12-11T04:32:19.482Z,97.66
2022-12-11T04:33:19.467Z,97.87
2022-12-11T04:34:19.452Z,97.87
2022-12-11T04:35:19.442Z,97.66
2022-12-11T04:36:19.425Z,97.71
2022-12-11T04:37:19.418Z,97.66
2022-12-11T04:38:19.407Z,97.81
2022-12-11T04:39:19.393Z,98.13
2022-12-11T04:40:19.375Z,97.81
2022-12-11T04:41:19.401Z,97.91
2022-12-11T04:42:19.354Z,98.23
2022-12-11T04:43:19.345Z,97.71
2022-12-11T04:44:19.338Z,97.39
2022-12-11T04:45:19.318Z,97.49
2022-12-11T04:46:19.371Z,97.60
2022-12-11T04:47:19.287Z,97.39
2022-12-11T04:48:19.274Z,97.28
2022-12-11T04:49:19.268Z,97.28
2022-12-11T04:50:19.256Z,97.17
2022-12-11T04:51:19.241Z,97.24
2022-12-11T04:52:19.227Z,97.17
2022-12-11T04:53:19.218Z,97.07
2022-12-11T04:54:19.205Z,97.07
2022-12-11T04:55:19.196Z,96.71
2022-12-11T04:56:19.175Z,96.61
2022-12-11T04:57:19.180Z,96.50
2022-12-11T04:58:19.144Z,97.13
2022-12-11T04:59:19.135Z,98.18
2022-12-11T05:00:19.130Z,98.08
2022-12-11T05:01:19.290Z,98.08
2022-12-11T05:02:19.094Z,98.24
2022-12-11T05:03:19.082Z,98.71
2022-12-11T05:04:19.068Z,98.46
2022-12-11T05:05:19.064Z,97.93
2022-12-11T05:06:19.048Z,97.93
2022-12-11T05:07:19.035Z,97.93
2022-12-11T05:08:19.074Z,98.03
2022-12-11T05:09:19.011Z,98.35
2022-12-11T05:10:18.992Z,99.08
2022-12-11T05:11:18.984Z,99.25
2022-12-11T05:12:18.971Z,99.99
2022-12-11T05:13:18.967Z,99.99
2022-12-11T05:14:18.935Z,99.40
2022-12-11T05:15:18.922Z,99.51
2022-12-11T05:16:19.033Z,99.36
2022-12-11T05:17:18.897Z,99.19
2022-12-11T05:18:18.889Z,99.40
2022-12-11T05:19:18.874Z,99.57
2022-12-11T05:20:18.864Z,99.99
2022-12-11T05:21:18.840Z,99.46
2022-12-11T05:22:18.833Z,99.25
2022-12-11T05:23:18.814Z,99.15
2022-12-11T05:24:18.803Z,99.57
2022-12-11T05:25:18.785Z,99.78
2022-12-11T05:26:18.780Z,99.93
2022-12-11T05:27:18.760Z,99.93
2022-12-11T05:28:18.750Z,99.78
2022-12-11T05:29:18.758Z,99.82
2022-12-11T05:30:18.727Z,99.51
2022-12-11T05:31:18.734Z,99.72
2022-12-11T05:32:18.698Z,99.51
2022-12-11T05:33:18.686Z,99.19
2022-12-11T05:34:18.673Z,98.94
2022-12-11T05:35:18.662Z,98.72
2022-12-11T05:36:18.641Z,98.72
2022-12-11T05:37:18.633Z,98.83
2022-12-11T05:38:18.616Z,99.04
2022-12-11T05:39:18.604Z,99.25
2022-12-11T05:40:18.602Z,99.46
2022-12-11T05:41:18.582Z,99.36
2022-12-11T05:42:18.563Z,99.88
2022-12-11T05:43:18.548Z,99.99
2022-12-11T05:44:18.538Z,99.99
2022-12-11T05:45:18.544Z,99.99
2022-12-11T05:46:18.549Z,99.99
2022-12-11T05:47:18.498Z,99.99
2022-12-11T05:48:18.487Z,99.99
2022-12-11T05:49:20.020Z,99.99
2022-12-11T05:50:18.456Z,99.99
2022-12-11T05:51:18.441Z,99.99
2022-12-11T05:52:18.435Z,99.99
2022-12-11T05:53:18.412Z,99.99
2022-12-11T05:54:18.404Z,99.78
2022-12-11T05:55:18.389Z,99.99
2022-12-11T05:56:18.380Z,99.99
2022-12-11T05:57:18.357Z,99.99
2022-12-11T05:58:18.351Z,99.99
2022-12-11T05:59:18.332Z,99.99
2022-12-11T06:00:18.315Z,99.99
2022-12-11T06:01:18.329Z,99.99
2022-12-11T06:02:18.401Z,99.93
2022-12-11T06:03:18.324Z,99.99
2022-12-11T06:04:18.270Z,99.99
2022-12-11T06:05:18.256Z,99.99
2022-12-11T06:06:18.243Z,99.99
2022-12-11T06:07:18.232Z,99.99
2022-12-11T06:08:18.340Z,99.99
2022-12-11T06:09:18.199Z,99.99
2022-12-11T06:10:18.187Z,99.99
2022-12-11T06:11:23.581Z,99.99
2022-12-11T06:12:18.160Z,99.99
2022-12-11T06:13:18.154Z,99.99
2022-12-11T06:14:18.139Z,99.99
2022-12-11T06:15:18.120Z,99.99
2022-12-11T06:16:18.187Z,99.99
2022-12-11T06:17:18.119Z,99.99
2022-12-11T06:18:18.082Z,99.99
2022-12-11T06:19:18.066Z,99.99
2022-12-11T06:20:18.053Z,99.99
2022-12-11T06:21:18.042Z,99.99
2022-12-11T06:22:18.033Z,99.99
2022-12-11T06:23:18.018Z,99.99
2022-12-11T06:24:18.008Z,99.99
2022-12-11T06:25:17.995Z,99.99
2022-12-11T06:26:17.983Z,99.91
2022-12-11T06:27:17.965Z,99.91
2022-12-11T06:28:17.954Z,99.99
2022-12-11T06:29:17.936Z,99.96
2022-12-11T06:30:17.924Z,99.99
2022-12-11T06:31:17.962Z,99.96
2022-12-11T06:32:17.903Z,99.43
2022-12-11T06:33:17.909Z,99.54
2022-12-11T06:34:17.882Z,99.43
2022-12-11T06:35:17.865Z,99.22
2022-12-11T06:36:17.851Z,99.01
2022-12-11T06:37:17.831Z,98.91
2022-12-11T06:38:17.825Z,98.91
2022-12-11T06:39:17.812Z,99.11
2022-12-11T06:40:17.801Z,99.01
2022-12-11T06:41:17.787Z,99.11
2022-12-11T06:42:17.779Z,99.37
2022-12-11T06:43:17.761Z,99.43
2022-12-11T06:44:17.749Z,99.54
2022-12-11T06:45:17.729Z,99.33
2022-12-11T06:46:17.801Z,99.27
2022-12-11T06:47:17.705Z,99.69
2022-12-11T06:48:17.697Z,99.43
2022-12-11T06:49:17.709Z,99.69
2022-12-11T06:50:17.672Z,99.37
2022-12-11T06:51:17.657Z,99.27
2022-12-11T06:52:18.658Z,99.58
2022-12-11T06:53:17.636Z,99.58
2022-12-11T06:54:17.625Z,99.69
2022-12-11T06:55:17.608Z,99.73
2022-12-11T06:56:17.606Z,99.48
2022-12-11T06:57:17.579Z,99.33
2022-12-11T06:58:17.566Z,99.37
2022-12-11T06:59:17.552Z,99.69
2022-12-11T07:00:17.538Z,99.69
2022-12-11T07:01:17.564Z,99.90
2022-12-11T07:02:17.547Z,99.99
2022-12-11T07:03:17.501Z,99.99
2022-12-11T07:04:17.493Z,99.99
2022-12-11T07:05:17.505Z,99.58
2022-12-11T07:06:17.466Z,99.69
2022-12-11T07:07:17.455Z,99.90
2022-12-11T07:08:17.579Z,99.99
2022-12-11T07:09:17.429Z,99.99
2022-12-11T07:10:17.420Z,99.69
2022-12-11T07:11:17.630Z,99.58
2022-12-11T07:12:17.392Z,99.79
2022-12-11T07:13:17.371Z,99.69
2022-12-11T07:14:17.361Z,99.99
2022-12-11T07:15:17.344Z,99.99
2022-12-11T07:16:17.394Z,99.95
2022-12-11T07:17:17.330Z,99.73
2022-12-11T07:18:17.317Z,99.73
2022-12-11T07:19:17.563Z,99.73
2022-12-11T07:20:17.294Z,99.73
2022-12-11T07:21:17.297Z,99.52
2022-12-11T07:22:17.263Z,99.41
2022-12-11T07:23:17.243Z,99.41
2022-12-11T07:24:17.234Z,99.52
2022-12-11T07:25:17.219Z,99.21
2022-12-11T07:26:17.211Z,99.52
2022-12-11T07:27:17.204Z,99.21
2022-12-11T07:28:17.393Z,99.21
2022-12-11T07:29:17.172Z,99.05
2022-12-11T07:30:17.167Z,99.48
2022-12-11T07:31:17.209Z,99.69
2022-12-11T07:32:17.269Z,99.73
2022-12-11T07:33:17.119Z,99.69
2022-12-11T07:34:17.111Z,99.99
2022-12-11T07:35:17.089Z,99.99
2022-12-11T07:36:17.081Z,99.99
2022-12-11T07:37:17.101Z,99.99
2022-12-11T07:38:17.049Z,99.99
2022-12-11T07:39:17.069Z,98.59
2022-12-11T07:40:17.028Z,97.64
2022-12-11T07:41:17.010Z,97.75
2022-12-11T07:42:17.000Z,98.27
2022-12-11T07:43:16.988Z,98.69
2022-12-11T07:44:16.982Z,98.91
2022-12-11T07:45:16.964Z,99.11
2022-12-11T07:46:17.010Z,99.75
2022-12-11T07:47:16.941Z,99.99
2022-12-11T07:48:16.928Z,99.99
2022-12-11T07:49:16.918Z,99.96
2022-12-11T07:50:16.899Z,99.99
2022-12-11T07:51:16.886Z,99.99
2022-12-11T07:52:16.875Z,99.99
2022-12-11T07:53:16.885Z,99.99
2022-12-11T07:54:16.924Z,99.99
2022-12-11T07:55:16.839Z,99.99
2022-12-11T07:56:16.855Z,99.99
2022-12-11T07:57:16.809Z,99.99
2022-12-11T07:58:16.803Z,99.99
2022-12-11T07:59:16.796Z,99.99
2022-12-11T08:00:16.866Z,99.99
2022-12-11T08:01:16.823Z,99.99
2022-12-11T08:02:16.835Z,99.99
2022-12-11T08:03:16.734Z,99.99
2022-12-11T08:04:16.725Z,99.99
2022-12-11T08:05:16.725Z,99.99
2022-12-11T08:06:16.699Z,99.99
2022-12-11T08:07:16.675Z,99.99
2022-12-11T08:08:16.731Z,99.99
2022-12-11T08:09:21.044Z,99.99
2022-12-11T08:10:16.656Z,99.99
2022-12-11T08:11:16.669Z,99.99
2022-12-11T08:12:16.622Z,99.99
2022-12-11T08:13:16.605Z,99.99
2022-12-11T08:14:16.592Z,99.99
2022-12-11T08:15:16.585Z,99.99
2022-12-11T08:16:16.647Z,99.99
2022-12-11T08:17:16.553Z,99.99
2022-12-11T08:18:16.547Z,99.99
2022-12-11T08:19:16.524Z,99.99
2022-12-11T08:20:16.518Z,99.99
2022-12-11T08:21:16.499Z,99.99
2022-12-11T08:22:16.488Z,99.99
2022-12-11T08:23:16.475Z,99.99
2022-12-11T08:24:16.502Z,99.99
2022-12-11T08:25:16.480Z,99.99
2022-12-11T08:26:16.431Z,99.99
2022-12-11T08:27:16.416Z,99.99
2022-12-11T08:28:16.404Z,99.99
2022-12-11T08:29:16.389Z,99.99
2022-12-11T08:30:16.420Z,99.99
2022-12-11T08:31:16.415Z,99.99
2022-12-11T08:32:16.354Z,99.99
2022-12-11T08:33:16.339Z,99.99
2022-12-11T08:34:16.330Z,99.99
2022-12-11T08:35:16.320Z,99.99
2022-12-11T08:36:16.305Z,99.99
2022-12-11T08:37:16.292Z,99.99
2022-12-11T08:38:19.631Z,99.99
2022-12-11T08:39:16.260Z,99.99
2022-12-11T08:40:16.324Z,99.99
2022-12-11T08:41:16.256Z,99.99
2022-12-11T08:42:16.225Z,99.99
2022-12-11T08:43:16.201Z,99.99
2022-12-11T08:44:17.052Z,99.99
2022-12-11T08:45:16.180Z,99.99
2022-12-11T08:46:16.379Z,99.99
2022-12-11T08:47:16.149Z,99.99
2022-12-11T08:48:16.141Z,99.99
2022-12-11T08:49:16.124Z,99.99
2022-12-11T08:50:16.293Z,99.99
2022-12-11T08:51:16.104Z,99.99
2022-12-11T08:52:16.132Z,99.99
2022-12-11T08:53:16.077Z,99.99
2022-12-11T08:54:16.066Z,99.99
2022-12-11T08:55:16.052Z,99.99
2022-12-11T08:56:16.256Z,99.99
2022-12-11T08:57:16.040Z,99.99
2022-12-11T08:58:16.008Z,99.99
2022-12-11T08:59:15.994Z,99.99
2022-12-11T09:00:16.027Z,99.99
2022-12-11T09:01:16.028Z,99.99
2022-12-11T09:02:15.985Z,99.99
2022-12-11T09:03:15.941Z,99.99
2022-12-11T09:04:15.982Z,99.99
2022-12-11T09:05:15.919Z,99.99
2022-12-11T09:06:15.933Z,99.99
2022-12-11T09:07:15.891Z,99.99
2022-12-11T09:08:15.912Z,99.99
2022-12-11T09:09:15.861Z,99.99
2022-12-11T09:10:15.851Z,99.99
2022-12-11T09:11:15.842Z,99.99
2022-12-11T09:12:15.825Z,99.99
2022-12-11T09:13:15.841Z,99.99
2022-12-11T09:14:15.795Z,99.99
2022-12-11T09:15:15.782Z,99.99
2022-12-11T09:16:15.814Z,99.99
2022-12-11T09:17:15.752Z,99.99
2022-12-11T09:18:15.744Z,99.99
2022-12-11T09:19:15.735Z,99.99
2022-12-11T09:20:16.070Z,99.99
2022-12-11T09:21:15.702Z,99.99
2022-12-11T09:22:15.693Z,99.99
2022-12-11T09:23:15.683Z,99.99
2022-12-11T09:24:15.739Z,99.99
2022-12-11T09:25:15.663Z,99.99
2022-12-11T09:26:15.632Z,99.99
2022-12-11T09:27:15.631Z,99.99
2022-12-11T09:28:15.606Z,99.99
2022-12-11T09:29:15.619Z,99.99
2022-12-11T09:30:15.584Z,99.99
2022-12-11T09:31:15.656Z,99.99
2022-12-11T09:32:15.556Z,99.99
2022-12-11T09:33:15.550Z,99.99
2022-12-11T09:34:15.569Z,99.99
2022-12-11T09:35:15.525Z,99.99
2022-12-11T09:36:15.505Z,99.99
2022-12-11T09:37:15.492Z,99.99
2022-12-11T09:38:15.491Z,99.99
2022-12-11T09:39:15.469Z,99.99
2022-12-11T09:40:15.447Z,99.99
2022-12-11T09:41:15.551Z,99.99
2022-12-11T09:42:15.431Z,99.99
2022-12-11T09:43:15.413Z,99.99
2022-12-11T09:44:15.402Z,99.99
2022-12-11T09:45:15.412Z,99.99
2022-12-11T09:46:15.435Z,99.99
2022-12-11T09:47:15.359Z,99.99
2022-12-11T09:48:15.349Z,99.99
2022-12-11T09:49:15.337Z,99.99
2022-12-11T09:50:15.339Z,99.99
2022-12-11T09:51:15.308Z,99.99
2022-12-11T09:52:15.290Z,99.99
2022-12-11T09:53:15.284Z,99.99
2022-12-11T09:54:15.262Z,99.99
2022-12-11T09:55:15.252Z,99.99
2022-12-11T09:56:15.242Z,99.99
2022-12-11T09:57:15.242Z,99.99
2022-12-11T09:58:15.214Z,99.99
2022-12-11T09:59:15.204Z,99.99
2022-12-11T10:00:15.189Z,99.99
2022-12-11T10:01:15.366Z,99.99
2022-12-11T10:02:15.211Z,99.99
2022-12-11T10:03:15.142Z,99.99
2022-12-11T10:04:15.155Z,99.99
2022-12-11T10:05:15.121Z,99.99
2022-12-11T10:06:15.110Z,99.99
2022-12-11T10:07:15.095Z,99.99
2022-12-11T10:08:15.122Z,99.99
2022-12-11T10:09:15.068Z,99.99
2022-12-11T10:10:15.053Z,99.99
2022-12-11T10:11:15.040Z,99.99
2022-12-11T10:12:15.037Z,99.99
2022-12-11T10:13:15.021Z,99.99
2022-12-11T10:14:15.004Z,99.99
2022-12-11T10:15:15.255Z,99.99
2022-12-11T10:16:15.016Z,99.99
2022-12-11T10:17:14.980Z,99.99
2022-12-11T10:18:14.947Z,99.99
2022-12-11T10:19:14.933Z,99.99
2022-12-11T10:20:14.923Z,99.99
2022-12-11T10:21:15.111Z,99.99
2022-12-11T10:22:14.896Z,99.99
2022-12-11T10:23:14.881Z,99.99
2022-12-11T10:24:24.383Z,99.99
2022-12-11T10:25:15.887Z,99.99
2022-12-11T10:26:14.844Z,99.99
2022-12-11T10:27:14.829Z,99.99
2022-12-11T10:28:14.821Z,99.99
2022-12-11T10:29:14.823Z,99.99
2022-12-11T10:30:14.814Z,99.99
2022-12-11T10:31:14.846Z,99.99
2022-12-11T10:32:14.760Z,99.99
2022-12-11T10:33:14.818Z,99.99
2022-12-11T10:34:14.740Z,99.99
2022-12-11T10:35:14.737Z,99.99
2022-12-11T10:36:14.716Z,99.99
2022-12-11T10:37:14.707Z,99.99
2022-12-11T10:38:14.689Z,99.99
2022-12-11T10:39:14.679Z,99.99
2022-12-11T10:40:14.669Z,99.99
2022-12-11T10:41:14.651Z,99.99
2022-12-11T10:42:14.634Z,99.99
2022-12-11T10:43:14.626Z,99.99
2022-12-11T10:44:14.609Z,99.99
2022-12-11T10:45:14.598Z,99.99
2022-12-11T10:46:14.617Z,99.99
2022-12-11T10:47:14.571Z,99.99
2022-12-11T10:48:14.560Z,99.99
2022-12-11T10:49:14.572Z,99.99
2022-12-11T10:50:14.585Z,99.99
2022-12-11T10:51:14.518Z,99.99
2022-12-11T10:52:14.507Z,99.99
2022-12-11T10:53:14.525Z,99.99
2022-12-11T10:54:14.497Z,99.99
2022-12-11T10:55:14.467Z,99.99
2022-12-11T10:56:14.459Z,99.99
2022-12-11T10:57:14.437Z,99.99
2022-12-11T10:58:14.494Z,99.99
2022-12-11T10:59:14.463Z,99.99
2022-12-11T11:00:14.404Z,99.99
2022-12-11T11:01:14.486Z,99.99
2022-12-11T11:02:14.374Z,99.99
2022-12-11T11:03:14.363Z,99.99
2022-12-11T11:04:14.346Z,99.99
2022-12-11T11:05:14.457Z,99.99
2022-12-11T11:06:14.330Z,99.99
2022-12-11T11:07:14.315Z,99.99
2022-12-11T11:08:14.390Z,99.99
2022-12-11T11:09:14.280Z,99.99
2022-12-11T11:10:14.265Z,99.65
2022-12-11T11:11:14.252Z,99.96
2022-12-11T11:12:14.344Z,99.99
2022-12-11T11:13:14.235Z,99.99
2022-12-11T11:14:14.227Z,99.76
2022-12-11T11:15:14.414Z,99.99
2022-12-11T11:16:14.259Z,99.99
2022-12-11T11:17:14.176Z,99.99
2022-12-11T11:18:14.163Z,99.99
2022-12-11T11:19:14.158Z,99.99
2022-12-11T11:20:14.137Z,99.99
2022-12-11T11:21:14.143Z,99.99
2022-12-11T11:22:14.098Z,99.99
2022-12-11T11:23:14.086Z,99.99
2022-12-11T11:24:14.076Z,99.99
2022-12-11T11:25:14.161Z,99.99
2022-12-11T11:26:14.053Z,98.89
2022-12-11T11:27:14.323Z,98.22
2022-12-11T11:28:14.026Z,97.95
2022-12-11T11:29:14.014Z,98.68
2022-12-11T11:30:14.093Z,99.20
2022-12-11T11:31:14.091Z,98.10
2022-12-11T11:32:13.977Z,98.62
2022-12-11T11:33:13.959Z,99.62
2022-12-11T11:34:13.951Z,99.73
2022-12-11T11:35:14.244Z,99.99
2022-12-11T11:36:13.914Z,99.99
2022-12-11T11:37:13.983Z,99.99
2022-12-11T11:38:13.896Z,99.47
2022-12-11T11:39:13.880Z,97.70
2022-12-11T11:40:13.984Z,98.63
2022-12-11T11:41:15.271Z,99.20
2022-12-11T11:42:13.846Z,99.68
2022-12-11T11:43:13.831Z,98.63
2022-12-11T11:44:13.813Z,99.05
2022-12-11T11:45:14.389Z,97.38
2022-12-11T11:46:13.855Z,98.63
2022-12-11T11:47:13.900Z,97.55
2022-12-11T11:48:13.862Z,96.61
2022-12-11T11:49:13.746Z,99.22
2022-12-11T11:50:13.820Z,97.65
2022-12-11T11:51:13.732Z,98.28
2022-12-11T11:52:13.784Z,97.97
2022-12-11T11:53:13.730Z,98.34
2022-12-11T11:54:13.681Z,99.99
2022-12-11T11:55:18.471Z,97.65
2022-12-11T11:56:14.681Z,97.24
2022-12-11T11:57:13.641Z,99.32
2022-12-11T11:58:13.785Z,99.99
2022-12-11T11:59:13.617Z,99.99
2022-12-11T12:00:13.700Z,99.99
2022-12-11T12:01:13.588Z,99.99
2022-12-11T12:02:13.573Z,99.99
2022-12-11T12:03:13.647Z,99.99
2022-12-11T12:04:13.586Z,99.99
2022-12-11T12:05:13.721Z,99.99
2022-12-11T12:06:15.111Z,97.97
2022-12-11T12:07:13.507Z,97.81
2022-12-11T12:08:13.551Z,98.38
2022-12-11T12:09:13.505Z,97.55
2022-12-11T12:10:13.623Z,98.65
2022-12-11T12:11:13.458Z,98.02
2022-12-11T12:12:13.439Z,99.07
2022-12-11T12:13:44.468Z,99.65
2022-12-11T12:14:43.569Z,99.59
2022-12-11T12:15:14.542Z,98.23
2022-12-11T12:16:43.776Z,96.98
2022-12-11T12:17:13.417Z,98.28
2022-12-11T12:18:13.365Z,98.59
2022-12-11T12:19:13.352Z,99.22
2022-12-11T12:20:13.336Z,98.28
2022-12-11T12:21:13.325Z,99.11
2022-12-11T12:22:13.309Z,98.86
2022-12-11T12:23:13.308Z,99.17
2022-12-11T12:24:13.284Z,98.34
2022-12-11T12:25:13.737Z,98.65
2022-12-11T12:26:13.251Z,96.46
2022-12-11T12:27:43.353Z,98.02
2022-12-11T12:28:14.252Z,97.34
2022-12-11T12:29:13.216Z,97.24
2022-12-11T12:30:17.367Z,97.24
2022-12-11T12:31:14.305Z,98.49
2022-12-11T12:32:13.181Z,97.24
2022-12-11T12:33:13.160Z,98.38
2022-12-11T12:34:13.148Z,98.18
2022-12-11T12:35:13.631Z,97.30
2022-12-11T12:36:13.116Z,97.65
2022-12-11T12:37:13.117Z,97.65
2022-12-11T12:38:13.096Z,98.59
2022-12-11T12:39:13.087Z,97.75
2022-12-11T12:40:13.073Z,98.59
2022-12-11T12:41:13.082Z,98.02
2022-12-11T12:42:13.039Z,97.44
2022-12-11T12:43:13.028Z,97.13
2022-12-11T12:44:13.058Z,97.03
2022-12-11T12:45:13.373Z,97.24
2022-12-11T12:46:13.060Z,99.11
2022-12-11T12:47:12.974Z,98.13
2022-12-11T12:48:12.962Z,98.34
2022-12-11T12:49:12.960Z,98.65
2022-12-11T12:50:12.942Z,96.77
2022-12-11T12:51:12.931Z,96.46
2022-12-11T12:52:12.977Z,95.83